Time;durP1;ratioP1;P1;durP2;ratioP2;P2;SDS_P1;SDS_P2;PMS_P1;PMS_P2;Temp;Humidity;BMP_temperature;BMP_pressure;BME280_temperature;BME280_humidity;BME280_pressure;Samples;Min_cycle;Max_cycle;Signal;HPM_P1;HPM_P2
2021/12/06 00:01:00;;;;;;;12.57;6.40;;;;;;;5.96;79.08;99981.41;5093155;28;20226;-62
2021/12/06 00:03:35;;;;;;;10.17;6.00;;;;;;;6.05;78.64;99983.28;5091964;28;20215;-63
2021/12/06 00:06:04;;;;;;;10.33;6.43;;;;;;;6.14;77.96;99995.66;5080810;28;20218;-61
2021/12/06 00:08:32;;;;;;;11.03;6.60;;;;;;;6.04;78.67;99992.97;5097539;28;20699;-63
2021/12/06 00:11:06;;;;;;;11.37;6.57;;;;;;;6.18;78.02;99983.88;5104986;28;20235;-61
2021/12/06 00:13:36;;;;;;;10.57;6.20;;;;;;;6.22;77.57;100000.25;5092830;28;20226;-63
2021/12/06 00:16:08;;;;;;;10.60;6.10;;;;;;;6.16;77.60;100001.59;5093893;28;20245;-62
2021/12/06 00:18:38;;;;;;;9.30;5.57;;;;;;;5.98;78.57;99998.72;5092967;28;20231;-62
2021/12/06 00:21:06;;;;;;;9.77;6.07;;;;;;;5.89;78.71;99990.81;5091304;28;20736;-63
2021/12/06 00:23:33;;;;;;;13.83;6.80;;;;;;;6.14;77.79;100014.06;5095177;28;20207;-62
2021/12/06 00:26:02;;;;;;;10.07;6.10;;;;;;;5.71;79.42;100005.47;5093101;28;20638;-63
2021/12/06 00:28:30;;;;;;;12.37;6.97;;;;;;;5.99;78.49;100003.03;5098974;28;20579;-62
2021/12/06 00:30:59;;;;;;;13.20;8.20;;;;;;;6.01;78.36;100008.16;5103695;28;20243;-62
2021/12/06 00:33:27;;;;;;;12.70;7.53;;;;;;;5.82;79.50;100003.59;5090082;28;20681;-63
2021/12/06 00:36:03;;;;;;;12.17;7.30;;;;;;;5.70;79.32;100009.06;5108497;28;20658;-62
2021/12/06 00:38:33;;;;;;;12.47;7.17;;;;;;;5.60;79.49;100019.50;5090491;28;20234;-63
2021/12/06 00:41:01;;;;;;;13.40;6.93;;;;;;;5.61;80.08;100018.56;5096335;28;20219;-62
2021/12/06 00:43:29;;;;;;;11.70;6.50;;;;;;;5.91;78.29;100012.53;5082160;28;20683;-63
2021/12/06 00:45:58;;;;;;;10.97;5.93;;;;;;;5.73;78.92;100019.31;5091002;28;20626;-63
2021/12/06 00:48:26;;;;;;;8.53;5.63;;;;;;;5.96;77.84;100016.47;5090685;28;20314;-62
2021/12/06 00:50:54;;;;;;;11.70;5.63;;;;;;;6.11;77.06;100024.00;5091434;28;20297;-62
2021/12/06 00:53:23;;;;;;;10.37;5.87;;;;;;;6.02;77.25;100020.38;5092204;28;20290;-62
2021/12/06 00:55:51;;;;;;;10.13;6.07;;;;;;;6.08;77.03;100029.53;5090954;28;20215;-62
2021/12/06 00:58:19;;;;;;;9.50;6.23;;;;;;;6.08;76.83;100019.84;5082338;28;20203;-62
2021/12/06 01:00:49;;;;;;;9.23;5.73;;;;;;;6.14;76.22;100016.72;5091699;28;20689;-63
2021/12/06 01:03:20;;;;;;;10.47;5.73;;;;;;;6.08;76.61;100022.47;5091708;28;20215;-62
2021/12/06 01:05:49;;;;;;;12.17;6.50;;;;;;;6.10;76.38;100022.34;5093500;28;20207;-64
2021/12/06 01:08:18;;;;;;;13.23;6.13;;;;;;;6.02;76.73;100025.63;5088108;28;20225;-64
2021/12/06 01:10:49;;;;;;;9.37;5.67;;;;;;;5.98;76.51;100032.13;5089502;28;20806;-63
2021/12/06 01:13:17;;;;;;;10.27;5.77;;;;;;;5.81;76.80;100040.56;5097603;28;20202;-62
2021/12/06 01:15:45;;;;;;;8.97;5.50;;;;;;;5.50;78.14;100050.16;5089200;28;20242;-61
2021/12/06 01:18:16;;;;;;;10.47;5.63;;;;;;;5.86;76.90;100051.53;5084147;28;20207;-64
2021/12/06 01:20:52;;;;;;;11.47;5.73;;;;;;;5.94;76.10;100054.41;5094510;28;20214;-64
2021/12/06 01:23:23;;;;;;;10.17;5.60;;;;;;;5.73;77.03;100067.50;5090868;28;20241;-62
2021/12/06 01:26:09;;;;;;;9.30;5.40;;;;;;;5.64;77.90;100074.34;5089834;28;20299;-62
2021/12/06 01:29:02;;;;;;;8.40;5.13;;;;;;;5.65;78.18;100083.09;5088547;28;20259;-62
2021/12/06 01:31:42;;;;;;;8.27;4.80;;;;;;;5.60;78.38;100091.38;5092727;28;20202;-62
2021/12/06 01:39:10;;;;;;;10.07;5.43;;;;;;;5.40;79.27;100097.41;5090746;28;20308;-62
2021/12/06 01:39:54;;;;;;;10.43;5.20;;;;;;;5.77;78.17;100099.66;5088659;28;20261;-62
2021/12/06 01:42:24;;;;;;;8.77;4.40;;;;;;;5.58;78.68;100098.53;5091080;28;20228;-62
2021/12/06 01:44:56;;;;;;;8.80;5.20;;;;;;;5.58;78.49;100101.16;5082833;28;20306;-62
2021/12/06 01:47:27;;;;;;;10.07;4.77;;;;;;;5.76;78.24;100098.00;5092032;28;20236;-62
2021/12/06 01:49:57;;;;;;;8.67;4.70;;;;;;;5.74;77.47;100105.16;5102068;28;20217;-62
2021/12/06 01:52:28;;;;;;;10.50;5.47;;;;;;;5.86;77.03;100109.44;5102512;28;20259;-62
2021/12/06 01:54:56;;;;;;;8.73;4.70;;;;;;;5.82;77.31;100110.63;5099267;28;20587;-62
2021/12/06 01:57:27;;;;;;;11.27;5.73;;;;;;;5.91;76.73;100117.81;5090673;28;20201;-62
2021/12/06 01:59:55;;;;;;;9.77;5.27;;;;;;;5.79;76.89;100121.44;5089341;28;20284;-62
2021/12/06 02:02:25;;;;;;;10.03;5.70;;;;;;;5.83;76.52;100120.19;5082242;28;20260;-62
2021/12/06 02:04:53;;;;;;;9.50;5.43;;;;;;;5.89;76.40;100119.75;5090166;28;20227;-62
2021/12/06 02:07:24;;;;;;;9.00;5.67;;;;;;;5.84;76.86;100124.50;5091543;28;20202;-62
2021/12/06 02:09:54;;;;;;;8.50;5.10;;;;;;;5.80;77.21;100136.25;5092612;28;20215;-64
2021/12/06 02:12:23;;;;;;;10.77;6.47;;;;;;;5.76;76.67;100135.66;5088341;28;20331;-63
2021/12/06 02:14:58;;;;;;;9.40;6.20;;;;;;;5.91;76.56;100139.69;5089342;28;20625;-62
2021/12/06 02:17:30;;;;;;;8.87;5.63;;;;;;;5.98;76.25;100146.13;5089671;28;20301;-62
2021/12/06 02:20:04;;;;;;;10.40;6.20;;;;;;;5.98;76.19;100130.31;5091359;28;20207;-63
2021/12/06 02:22:36;;;;;;;8.47;6.00;;;;;;;6.02;76.18;100130.91;5089781;28;20217;-62
2021/12/06 02:25:07;;;;;;;10.27;6.90;;;;;;;6.09;75.73;100132.06;5090885;28;20289;-62
2021/12/06 02:27:35;;;;;;;10.47;6.27;;;;;;;5.92;76.23;100141.38;5087724;28;20260;-63
2021/12/06 02:30:07;;;;;;;11.73;6.80;;;;;;;6.09;76.07;100144.38;5088757;28;20317;-61
2021/12/06 02:32:35;;;;;;;12.17;7.00;;;;;;;6.00;75.96;100140.72;5087924;28;20211;-62
2021/12/06 02:35:06;;;;;;;12.70;7.03;;;;;;;5.97;76.21;100154.16;5091690;28;20202;-63
2021/12/06 02:37:35;;;;;;;12.40;6.07;;;;;;;5.81;77.74;100148.44;5089819;28;20291;-62
2021/12/06 02:40:08;;;;;;;12.10;8.20;;;;;;;6.01;76.53;100150.28;5095677;28;20209;-62
2021/12/06 02:42:37;;;;;;;15.33;7.60;;;;;;;5.85;77.05;100157.75;5103013;28;20271;-62
2021/12/06 02:45:06;;;;;;;15.47;8.23;;;;;;;5.78;77.55;100143.44;5094712;28;20232;-66
2021/12/06 02:47:33;;;;;;;12.67;8.03;;;;;;;5.58;78.93;100153.78;5088170;28;20211;-62
2021/12/06 02:50:07;;;;;;;13.60;7.93;;;;;;;5.57;78.43;100153.91;5087460;28;20297;-62
2021/12/06 02:52:37;;;;;;;14.17;8.83;;;;;;;5.87;77.34;100158.47;5091601;28;20211;-62
2021/12/06 02:55:25;;;;;;;15.20;9.13;;;;;;;5.99;76.85;100152.22;5088212;28;20230;-62
2021/12/06 02:57:56;;;;;;;13.17;7.83;;;;;;;5.82;77.27;100150.94;5091955;28;20306;-62
2021/12/06 03:00:26;;;;;;;16.13;8.87;;;;;;;5.79;77.47;100150.38;5093876;28;20331;-64
2021/12/06 03:02:54;;;;;;;12.13;8.57;;;;;;;5.89;76.52;100153.97;5085113;28;20758;-62
2021/12/06 03:05:22;;;;;;;13.83;8.47;;;;;;;5.85;76.99;100149.84;5093899;28;20218;-62
2021/12/06 03:07:58;;;;;;;14.73;8.97;;;;;;;5.99;76.15;100157.47;5091224;28;20637;-62
2021/12/06 03:10:26;;;;;;;14.30;8.20;;;;;;;5.86;76.13;100162.91;5095854;28;20206;-62
2021/12/06 03:12:54;;;;;;;14.30;8.30;;;;;;;6.00;76.07;100167.03;5092727;28;20295;-62
2021/12/06 03:15:23;;;;;;;17.30;8.87;;;;;;;5.91;76.07;100171.28;5090401;28;20253;-62
2021/12/06 03:17:51;;;;;;;15.80;9.20;;;;;;;5.90;76.18;100180.13;5090864;28;20234;-62
2021/12/06 03:20:19;;;;;;;17.30;9.00;;;;;;;5.68;76.85;100170.50;5096115;28;20285;-62
2021/12/06 03:22:47;;;;;;;17.80;10.47;;;;;;;5.44;77.57;100164.59;5093684;28;20301;-62
2021/12/06 03:25:19;;;;;;;15.20;9.23;;;;;;;5.14;79.05;100172.25;5092541;28;20215;-62
2021/12/06 03:27:47;;;;;;;15.63;9.20;;;;;;;5.36;79.01;100169.63;5091061;28;20388;-62
2021/12/06 03:30:16;;;;;;;16.40;9.83;;;;;;;5.55;77.64;100180.31;5091528;28;20244;-62
2021/12/06 03:32:45;;;;;;;17.60;9.57;;;;;;;5.65;77.51;100176.00;5092407;28;20702;-62
2021/12/06 03:35:13;;;;;;;15.70;9.80;;;;;;;5.72;76.93;100186.03;5093069;28;20301;-62
2021/12/06 03:37:41;;;;;;;13.57;9.60;;;;;;;5.72;76.62;100186.84;5090140;28;20301;-62
2021/12/06 03:40:10;;;;;;;17.23;9.63;;;;;;;5.70;76.89;100183.53;5093173;28;20249;-62
2021/12/06 03:42:39;;;;;;;14.33;8.63;;;;;;;5.53;77.69;100184.06;5093072;28;20285;-62
2021/12/06 03:45:09;;;;;;;16.17;9.30;;;;;;;5.39;77.97;100192.19;5091958;28;20298;-62
2021/12/06 03:47:37;;;;;;;15.73;9.20;;;;;;;5.61;77.38;100187.72;5101014;28;20235;-62
2021/12/06 03:50:08;;;;;;;15.10;9.53;;;;;;;5.59;77.17;100196.69;5089299;28;20258;-62
2021/12/06 03:52:36;;;;;;;16.00;8.70;;;;;;;5.65;76.95;100191.78;5085361;28;20297;-62
2021/12/06 03:55:06;;;;;;;14.97;8.40;;;;;;;5.56;77.16;100197.78;5087082;28;20238;-62
2021/12/06 03:57:34;;;;;;;16.60;9.40;;;;;;;5.74;76.34;100205.13;5085403;28;20268;-62
2021/12/06 04:00:06;;;;;;;15.00;8.50;;;;;;;5.59;77.23;100202.78;5090575;28;20234;-62
2021/12/06 04:02:34;;;;;;;14.97;8.60;;;;;;;5.70;76.77;100209.00;5093862;28;20221;-62
2021/12/06 04:05:02;;;;;;;16.67;8.90;;;;;;;5.72;76.26;100212.34;5092916;28;20289;-62
2021/12/06 04:07:30;;;;;;;17.00;8.60;;;;;;;5.79;75.63;100218.78;5088826;28;20280;-62
2021/12/06 04:09:57;;;;;;;16.40;9.57;;;;;;;5.80;75.75;100220.47;5088766;28;20239;-62
2021/12/06 04:12:25;;;;;;;14.70;9.33;;;;;;;5.53;77.00;100229.59;5092874;28;20301;-62
2021/12/06 04:14:53;;;;;;;14.57;9.20;;;;;;;5.57;76.88;100228.38;5092222;28;20203;-61
2021/12/06 04:17:22;;;;;;;15.93;9.53;;;;;;;5.65;76.35;100233.88;5091864;28;20292;-62
2021/12/06 04:19:50;;;;;;;16.33;9.47;;;;;;;5.65;76.08;100228.59;5091586;28;20635;-62
2021/12/06 04:22:20;;;;;;;16.30;9.73;;;;;;;5.57;76.52;100236.28;5093225;28;20214;-62
2021/12/06 04:24:48;;;;;;;14.70;8.80;;;;;;;5.58;76.59;100243.22;5090434;28;20261;-62
2021/12/06 04:27:18;;;;;;;14.37;9.67;;;;;;;5.68;76.33;100233.63;5091388;28;20218;-62
2021/12/06 04:29:48;;;;;;;15.77;9.27;;;;;;;5.76;75.84;100240.06;5090165;28;20292;-62
2021/12/06 04:32:17;;;;;;;17.00;9.53;;;;;;;5.79;75.63;100242.47;5090658;28;20241;-62
2021/12/06 04:34:46;;;;;;;16.47;9.87;;;;;;;5.83;75.53;100249.13;5092381;28;20331;-62
2021/12/06 04:37:14;;;;;;;14.40;9.27;;;;;;;5.60;76.11;100249.19;5106468;28;20209;-62
2021/12/06 04:39:43;;;;;;;15.27;9.10;;;;;;;5.68;75.84;100253.84;5090769;28;20258;-62
2021/12/06 04:42:10;;;;;;;16.47;9.23;;;;;;;5.77;75.69;100257.53;5092637;28;20951;-62
2021/12/06 04:44:38;;;;;;;15.50;9.40;;;;;;;5.79;75.37;100255.63;5092429;28;20215;-62
2021/12/06 04:47:08;;;;;;;17.60;9.03;;;;;;;5.70;75.32;100254.56;5092763;28;20206;-62
2021/12/06 04:49:36;;;;;;;13.17;8.90;;;;;;;5.73;75.52;100258.72;5090816;28;20250;-62
2021/12/06 04:52:11;;;;;;;15.90;9.73;;;;;;;5.75;75.19;100259.44;5092040;28;20297;-62
2021/12/06 04:54:44;;;;;;;14.73;9.57;;;;;;;5.70;75.56;100258.97;5093118;28;20202;-62
2021/12/06 04:57:18;;;;;;;15.63;9.43;;;;;;;5.49;76.44;100264.97;5091977;28;20305;-62
2021/12/06 04:59:49;;;;;;;15.47;9.23;;;;;;;5.41;76.16;100262.09;5089597;28;20289;-62
2021/12/06 05:02:23;;;;;;;13.90;9.03;;;;;;;5.48;76.10;100265.94;5081877;28;20299;-62
2021/12/06 05:04:55;;;;;;;14.50;9.47;;;;;;;5.61;75.77;100273.69;5093212;28;20687;-62
2021/12/06 05:07:27;;;;;;;16.80;10.30;;;;;;;5.65;75.58;100283.84;5097343;28;20243;-62
2021/12/06 05:09:56;;;;;;;17.00;10.40;;;;;;;5.44;76.01;100287.34;5094112;28;20312;-62
2021/12/06 05:12:27;;;;;;;16.27;10.17;;;;;;;5.59;75.93;100289.59;5091838;28;20628;-62
2021/12/06 05:14:56;;;;;;;15.00;9.43;;;;;;;5.67;75.61;100300.34;5095445;28;20206;-62
2021/12/06 05:17:24;;;;;;;16.30;9.37;;;;;;;5.30;77.02;100302.38;5093255;28;20206;-62
2021/12/06 05:19:52;;;;;;;19.73;10.10;;;;;;;5.47;76.39;100301.06;5098700;28;20301;-62
2021/12/06 05:22:20;;;;;;;18.17;10.00;;;;;;;5.57;76.08;100299.41;5086715;28;20243;-62
2021/12/06 05:24:49;;;;;;;18.03;10.17;;;;;;;5.54;75.97;100297.00;5091567;28;20360;-62
2021/12/06 05:27:19;;;;;;;16.93;8.77;;;;;;;5.12;78.01;100314.31;5090194;28;20247;-62
2021/12/06 05:29:51;;;;;;;16.73;9.23;;;;;;;5.36;77.17;100314.25;5088265;28;20305;-63
2021/12/06 05:32:19;;;;;;;16.10;10.23;;;;;;;5.26;77.50;100316.72;5097125;28;20210;-63
2021/12/06 05:34:49;;;;;;;19.00;9.90;;;;;;;5.34;77.09;100316.13;5092170;28;20211;-63
2021/12/06 05:37:17;;;;;;;17.37;11.00;;;;;;;5.40;76.74;100320.91;5091984;28;20657;-63
2021/12/06 05:39:45;;;;;;;14.83;9.57;;;;;;;5.45;76.49;100320.56;5085105;28;20313;-62
2021/12/06 05:42:18;;;;;;;19.87;10.17;;;;;;;5.23;77.47;100331.91;5092867;28;20210;-63
2021/12/06 05:44:45;;;;;;;17.43;10.57;;;;;;;5.39;76.92;100332.38;5092160;28;20211;-63
2021/12/06 05:47:14;;;;;;;14.47;9.70;;;;;;;5.44;76.64;100338.16;5092725;28;20245;-62
2021/12/06 05:49:42;;;;;;;17.23;9.97;;;;;;;5.38;77.10;100343.84;5091731;28;20309;-63
2021/12/06 05:52:10;;;;;;;19.80;11.00;;;;;;;5.41;76.91;100341.00;5089727;28;20207;-62
2021/12/06 05:54:39;;;;;;;15.80;10.30;;;;;;;5.52;76.59;100348.06;5090259;28;20252;-63
2021/12/06 05:57:09;;;;;;;18.77;10.47;;;;;;;5.45;76.66;100358.22;5094045;28;20264;-64
2021/12/06 05:59:39;;;;;;;16.13;10.23;;;;;;;5.45;76.50;100360.84;5095397;28;20293;-62
2021/12/06 06:02:10;;;;;;;18.60;10.67;;;;;;;5.35;77.22;100365.16;5092438;28;20207;-64
2021/12/06 06:04:39;;;;;;;18.27;11.50;;;;;;;5.44;76.84;100374.13;5091010;28;20219;-63
2021/12/06 06:07:07;;;;;;;16.50;10.23;;;;;;;5.35;77.47;100375.66;5106363;28;20212;-62
2021/12/06 06:09:36;;;;;;;19.17;11.57;;;;;;;5.36;77.64;100385.22;5090802;28;20214;-63
2021/12/06 06:12:04;;;;;;;18.97;10.67;;;;;;;5.52;76.80;100388.34;5086383;28;20238;-63
2021/12/06 06:14:33;;;;;;;17.70;10.47;;;;;;;5.51;76.85;100389.31;5090842;28;20513;-63
2021/12/06 06:17:09;;;;;;;18.23;11.57;;;;;;;5.34;77.66;100402.91;5109497;28;20214;-64
2021/12/06 06:19:38;;;;;;;18.13;11.07;;;;;;;5.21;77.43;100402.16;5088865;28;20734;-63
2021/12/06 06:22:06;;;;;;;16.80;10.60;;;;;;;5.43;76.94;100406.63;5097645;28;20614;-63
2021/12/06 06:24:34;;;;;;;17.97;11.10;;;;;;;5.38;76.85;100409.59;5091210;28;20782;-63
2021/12/06 06:27:02;;;;;;;21.33;11.70;;;;;;;5.54;76.26;100420.63;5090145;28;20237;-64
2021/12/06 06:29:31;;;;;;;17.67;10.93;;;;;;;5.57;76.18;100414.28;5093297;28;20740;-63
2021/12/06 06:31:59;;;;;;;18.00;10.50;;;;;;;5.43;76.28;100418.00;5089065;28;20871;-63
2021/12/06 06:34:28;;;;;;;19.93;10.30;;;;;;;5.55;76.16;100426.72;5087875;28;20210;-62
2021/12/06 06:36:57;;;;;;;20.30;9.77;;;;;;;5.57;76.10;100430.06;5088228;28;20246;-63
2021/12/06 06:39:25;;;;;;;18.43;10.37;;;;;;;5.47;76.22;100429.94;5091510;28;20861;-63
2021/12/06 06:41:55;;;;;;;19.03;11.63;;;;;;;5.58;76.20;100432.59;5091195;28;20210;-63
2021/12/06 06:44:23;;;;;;;16.37;9.90;;;;;;;5.32;77.48;100430.25;5089608;28;20203;-63
2021/12/06 06:46:53;;;;;;;16.23;9.97;;;;;;;5.36;77.14;100443.09;5085188;28;20210;-63
2021/12/06 06:49:21;;;;;;;18.50;9.97;;;;;;;5.51;76.48;100441.91;5090677;28;20238;-63
2021/12/06 06:51:50;;;;;;;15.70;10.00;;;;;;;5.53;76.35;100444.44;5085164;28;20231;-62
2021/12/06 06:54:19;;;;;;;18.57;9.57;;;;;;;5.50;76.18;100442.03;5087575;28;20293;-63
2021/12/06 06:56:46;;;;;;;16.37;9.70;;;;;;;5.55;76.01;100437.25;5089226;28;20607;-63
2021/12/06 06:59:14;;;;;;;19.83;10.90;;;;;;;5.60;75.81;100441.22;5102835;28;20384;-63
2021/12/06 07:01:45;;;;;;;17.73;10.80;;;;;;;5.54;76.12;100446.13;5087452;28;20276;-63
2021/12/06 07:04:13;;;;;;;18.73;10.50;;;;;;;5.62;75.75;100449.84;5089329;28;21605;-63
2021/12/06 07:06:42;;;;;;;17.33;10.60;;;;;;;5.39;76.80;100452.50;5088925;28;20214;-63
2021/12/06 07:09:12;;;;;;;18.53;10.30;;;;;;;5.45;76.21;100450.28;5082743;28;20221;-63
2021/12/06 07:11:44;;;;;;;19.27;10.27;;;;;;;5.18;76.98;100454.97;5087964;28;20287;-63
2021/12/06 07:14:12;;;;;;;19.00;10.10;;;;;;;5.38;76.86;100456.09;5090751;28;20214;-63
2021/12/06 07:16:40;;;;;;;20.70;10.93;;;;;;;5.44;76.19;100458.28;5089249;28;20437;-62
2021/12/06 07:19:08;;;;;;;17.77;10.87;;;;;;;5.51;75.81;100454.22;5085792;28;20741;-61
2021/12/06 07:21:56;;;;;;;17.33;9.77;;;;;;;5.43;76.19;100460.06;5079638;28;20210;-62
2021/12/06 07:24:25;;;;;;;21.93;10.97;;;;;;;5.55;76.20;100461.75;5085053;28;20293;-61
2021/12/06 07:26:53;;;;;;;18.67;10.00;;;;;;;5.65;75.29;100467.16;5085845;28;20690;-62
2021/12/06 07:29:21;;;;;;;19.60;10.40;;;;;;;5.63;75.43;100477.78;5089769;28;20210;-61
2021/12/06 07:31:49;;;;;;;16.53;10.23;;;;;;;5.32;77.10;100483.69;5086847;28;20280;-61
2021/12/06 07:34:17;;;;;;;15.77;9.77;;;;;;;5.49;76.19;100480.63;5089801;28;20191;-65
2021/12/06 07:36:45;;;;;;;16.13;10.03;;;;;;;5.36;76.37;100495.66;5085595;28;20265;-62
2021/12/06 07:39:12;;;;;;;17.23;9.97;;;;;;;5.46;76.01;100494.00;5089221;28;20250;-61
2021/12/06 07:41:41;;;;;;;16.60;9.70;;;;;;;5.57;75.68;100494.03;5088073;28;20302;-61
2021/12/06 07:44:09;;;;;;;17.87;11.27;;;;;;;5.49;75.75;100499.06;5080620;28;20215;-61
2021/12/06 07:46:37;;;;;;;19.10;10.27;;;;;;;5.54;76.03;100502.16;5090563;28;20210;-61
2021/12/06 07:49:05;;;;;;;18.20;10.93;;;;;;;5.65;75.67;100496.94;5085572;28;20207;-60
2021/12/06 07:51:33;;;;;;;19.13;11.57;;;;;;;5.68;75.26;100499.34;5090978;28;20223;-60
2021/12/06 07:54:02;;;;;;;19.87;11.40;;;;;;;5.70;75.31;100503.66;5091244;28;20306;-60
2021/12/06 07:56:30;;;;;;;16.87;11.80;;;;;;;5.64;75.84;100505.78;5093924;28;20210;-61
2021/12/06 07:58:59;;;;;;;21.07;12.10;;;;;;;5.74;75.43;100510.34;5090451;28;20238;-60
2021/12/06 08:01:27;;;;;;;19.97;12.63;;;;;;;5.76;75.12;100511.06;5092745;28;20265;-61
2021/12/06 08:03:55;;;;;;;21.90;12.60;;;;;;;5.83;75.14;100510.50;5094834;28;20210;-61
2021/12/06 08:06:22;;;;;;;22.10;12.90;;;;;;;5.90;75.01;100511.72;5091121;28;20703;-61
2021/12/06 08:08:50;;;;;;;20.30;12.37;;;;;;;5.92;75.05;100508.97;5090763;28;20206;-60
2021/12/06 08:11:19;;;;;;;21.67;11.80;;;;;;;5.95;74.82;100514.03;5102884;28;20329;-61
2021/12/06 08:13:50;;;;;;;16.87;11.23;;;;;;;6.00;74.51;100515.34;5090589;28;20210;-61
2021/12/06 08:16:23;;;;;;;23.77;13.13;;;;;;;6.00;74.39;100520.59;5091230;28;20215;-60
2021/12/06 08:18:51;;;;;;;20.97;12.67;;;;;;;5.89;74.86;100512.69;5092917;28;20212;-61
2021/12/06 08:21:21;;;;;;;18.43;11.43;;;;;;;5.97;74.83;100525.28;5088996;28;20245;-61
2021/12/06 08:23:51;;;;;;;17.20;11.57;;;;;;;6.01;74.70;100526.69;5093775;28;20198;-61
2021/12/06 08:26:21;;;;;;;20.23;12.63;;;;;;;5.92;75.23;100525.63;5092597;28;20210;-61
2021/12/06 08:28:50;;;;;;;20.50;11.77;;;;;;;6.09;74.38;100532.22;5095118;28;20257;-61
2021/12/06 08:31:22;;;;;;;23.10;13.40;;;;;;;6.18;73.96;100531.50;5090378;28;20314;-61
2021/12/06 08:33:52;;;;;;;19.87;11.93;;;;;;;6.12;74.05;100536.41;5092542;28;20289;-61
2021/12/06 08:36:21;;;;;;;20.17;11.53;;;;;;;6.32;73.66;100535.72;5085843;28;20245;-61
2021/12/06 08:38:50;;;;;;;21.33;11.67;;;;;;;6.27;73.58;100536.06;5091676;28;20239;-61
2021/12/06 08:41:21;;;;;;;18.30;11.60;;;;;;;6.16;73.87;100537.84;5087952;28;20306;-61
2021/12/06 08:43:50;;;;;;;20.23;11.73;;;;;;;6.22;73.76;100529.50;5091190;28;20306;-61
2021/12/06 08:46:25;;;;;;;18.97;11.43;;;;;;;6.34;72.79;100531.16;5086568;28;20249;-61
2021/12/06 08:48:55;;;;;;;18.00;11.03;;;;;;;6.45;72.26;100517.16;5083386;28;20219;-61
2021/12/06 08:51:26;;;;;;;20.97;12.47;;;;;;;6.49;72.62;100526.50;5091630;28;20656;-61
2021/12/06 08:53:56;;;;;;;21.70;11.17;;;;;;;6.60;72.50;100526.47;5089665;28;20261;-61
2021/12/06 08:56:24;;;;;;;16.23;10.93;;;;;;;6.59;72.53;100530.09;5089873;28;20230;-61
2021/12/06 08:58:52;;;;;;;17.57;10.43;;;;;;;6.71;72.12;100526.47;5089491;28;20207;-61
2021/12/06 09:01:22;;;;;;;16.67;11.40;;;;;;;6.68;72.31;100521.47;5088799;28;20266;-60
2021/12/06 09:04:12;;;;;;;19.13;12.33;;;;;;;7.03;70.97;100519.47;5094114;28;20201;-59
2021/12/06 09:06:43;;;;;;;21.70;11.97;;;;;;;7.15;70.67;100522.88;5090279;28;20310;-61
2021/12/06 09:09:12;;;;;;;17.80;11.07;;;;;;;7.22;70.55;100517.94;5084771;28;20680;-61
2021/12/06 09:11:42;;;;;;;18.77;11.40;;;;;;;7.16;70.21;100519.28;5089022;28;20312;-61
2021/12/06 09:14:11;;;;;;;19.40;10.37;;;;;;;7.10;70.27;100518.00;5086470;28;20721;-60
2021/12/06 09:16:40;;;;;;;15.37;9.40;;;;;;;6.96;70.80;100523.53;5096943;28;20257;-60
2021/12/06 09:19:11;;;;;;;14.67;8.90;;;;;;;6.93;70.85;100513.25;5105169;28;20212;-60
2021/12/06 09:21:40;;;;;;;12.70;8.17;;;;;;;6.87;71.11;100515.53;5088259;28;20967;-61
2021/12/06 09:24:12;;;;;;;15.33;8.50;;;;;;;6.51;72.60;100514.06;5087055;28;20557;-61
2021/12/06 09:26:40;;;;;;;14.27;8.13;;;;;;;6.34;73.61;100512.72;5087955;28;20599;-62
2021/12/06 09:29:08;;;;;;;12.93;7.87;;;;;;;6.60;73.13;100505.38;5088894;28;20257;-61
2021/12/06 09:31:36;;;;;;;17.03;8.80;;;;;;;6.67;72.35;100511.88;5097191;28;20267;-59
2021/12/06 09:34:06;;;;;;;12.40;7.80;;;;;;;6.57;72.80;100511.75;5082124;28;20292;-61
2021/12/06 09:36:34;;;;;;;12.63;8.27;;;;;;;6.67;72.51;100517.16;5081916;28;21041;-61
2021/12/06 09:39:05;;;;;;;15.03;8.33;;;;;;;6.58;72.43;100521.34;5091624;28;20326;-61
2021/12/06 09:41:33;;;;;;;14.63;8.97;;;;;;;6.74;72.22;100519.16;5091251;28;20211;-60
2021/12/06 09:44:05;;;;;;;15.27;7.83;;;;;;;6.84;72.12;100521.91;5088388;28;20294;-60
2021/12/06 09:46:36;;;;;;;16.47;9.77;;;;;;;6.74;72.06;100527.06;5089543;28;20213;-60
2021/12/06 09:49:08;;;;;;;14.63;8.93;;;;;;;6.83;71.95;100525.50;5088113;28;20222;-62
2021/12/06 09:51:39;;;;;;;14.47;8.53;;;;;;;6.98;71.65;100531.31;5087729;28;20252;-62
2021/12/06 09:54:09;;;;;;;14.13;8.67;;;;;;;6.93;71.95;100534.34;5077704;28;20687;-62
2021/12/06 09:56:40;;;;;;;18.90;9.40;;;;;;;7.72;69.33;100542.81;5082092;28;20220;-63
2021/12/06 09:59:11;;;;;;;13.70;8.83;;;;;;;10.07;61.92;100529.75;5085140;28;20630;-63
2021/12/06 10:01:42;;;;;;;12.13;8.03;;;;;;;11.11;57.03;100533.06;5086745;28;20319;-62
2021/12/06 10:04:15;;;;;;;12.17;8.10;;;;;;;12.69;52.08;100527.59;5083175;28;20228;-62
2021/12/06 10:06:44;;;;;;;14.20;8.43;;;;;;;13.82;48.46;100525.16;5079420;28;20207;-64
2021/12/06 10:09:13;;;;;;;11.43;7.97;;;;;;;14.35;46.84;100526.41;5089509;28;20301;-63
2021/12/06 10:11:42;;;;;;;12.20;8.03;;;;;;;12.46;50.74;100534.50;5084603;28;20218;-60
2021/12/06 10:14:11;;;;;;;9.57;6.57;;;;;;;10.89;55.32;100527.22;5089311;28;20244;-62
2021/12/06 10:16:40;;;;;;;10.80;7.30;;;;;;;9.87;58.31;100533.41;5083401;28;20293;-62
2021/12/06 10:19:08;;;;;;;10.77;7.57;;;;;;;9.32;61.24;100527.84;5084735;28;20662;-62
2021/12/06 10:21:38;;;;;;;13.57;8.80;;;;;;;9.18;61.74;100520.34;5089067;28;20211;-61
2021/12/06 10:24:09;;;;;;;14.20;8.37;;;;;;;9.20;62.05;100518.41;5088399;28;20207;-61
2021/12/06 10:26:37;;;;;;;12.83;9.10;;;;;;;13.08;51.64;100509.28;5077369;28;20248;-61
2021/12/06 10:29:08;;;;;;;12.80;8.80;;;;;;;15.91;44.19;100506.69;5087572;28;20892;-61
2021/12/06 10:31:41;;;;;;;14.90;8.60;;;;;;;15.41;44.49;100514.22;5090669;28;20236;-62
2021/12/06 10:34:09;;;;;;;12.60;8.87;;;;;;;13.77;47.83;100506.19;5085953;28;20231;-62
2021/12/06 10:36:38;;;;;;;10.73;8.00;;;;;;;16.26;42.53;100502.47;5087228;28;20276;-62
2021/12/06 10:39:09;;;;;;;12.97;8.00;;;;;;;18.49;38.31;100495.84;5083059;28;20242;-63
2021/12/06 10:41:38;;;;;;;9.63;7.07;;;;;;;18.50;37.56;100488.59;5085423;28;20310;-62
2021/12/06 10:44:10;;;;;;;10.07;7.43;;;;;;;17.92;38.87;100496.09;5089683;28;20283;-62
2021/12/06 10:46:41;;;;;;;10.70;7.07;;;;;;;14.61;44.84;100495.00;5089505;28;20237;-62
2021/12/06 10:49:13;;;;;;;9.83;6.83;;;;;;;13.18;49.60;100488.69;5090806;28;20261;-61
2021/12/06 10:51:42;;;;;;;9.05;6.95;;;;;;;12.60;51.62;100494.81;5085988;28;20214;-61
2021/12/06 10:54:19;;;;;;;10.13;6.63;;;;;;;11.61;53.85;100486.41;5083091;28;20268;-61
2021/12/06 10:56:51;;;;;;;8.47;6.77;;;;;;;10.36;56.76;100497.06;5077896;28;20206;-60
2021/12/06 10:59:21;;;;;;;10.37;7.13;;;;;;;10.28;57.75;100491.66;5087943;28;20211;-61
2021/12/06 11:01:53;;;;;;;11.50;7.27;;;;;;;11.03;56.70;100493.19;5088168;28;20265;-61
2021/12/06 11:04:25;;;;;;;10.10;6.90;;;;;;;11.24;56.25;100488.44;5089067;28;20226;-61
2021/12/06 11:07:01;;;;;;;9.27;6.80;;;;;;;11.80;54.32;100489.88;5088480;28;20295;-61
2021/12/06 11:09:31;;;;;;;10.20;7.30;;;;;;;11.94;54.33;100486.69;5076325;28;20267;-61
2021/12/06 11:12:02;;;;;;;12.03;8.13;;;;;;;11.81;54.69;100483.59;5094982;28;20213;-61
2021/12/06 11:14:33;;;;;;;8.77;7.13;;;;;;;12.88;51.55;100476.78;5089486;28;20283;-62
2021/12/06 11:17:03;;;;;;;11.57;7.63;;;;;;;10.67;56.87;100486.97;5091489;28;20249;-61
2021/12/06 11:19:32;;;;;;;11.73;8.30;;;;;;;10.14;58.43;100483.16;5091202;28;20206;-61
2021/12/06 11:22:04;;;;;;;12.40;9.23;;;;;;;9.70;60.11;100481.16;5094133;28;20306;-61
2021/12/06 11:24:34;;;;;;;12.50;9.10;;;;;;;9.18;61.63;100485.94;5092699;28;20719;-62
2021/12/06 11:27:04;;;;;;;13.80;8.93;;;;;;;8.44;64.56;100487.34;5094429;28;20245;-61
2021/12/06 11:29:36;;;;;;;13.70;9.33;;;;;;;8.58;64.76;100489.59;5090215;28;20225;-62
2021/12/06 11:32:07;;;;;;;14.23;8.70;;;;;;;8.95;63.48;100485.38;5086152;28;20218;-61
2021/12/06 11:34:39;;;;;;;13.33;8.87;;;;;;;8.77;64.12;100488.81;5083653;28;20331;-63
2021/12/06 11:37:19;;;;;;;12.77;8.27;;;;;;;8.77;63.98;100484.38;5085464;28;20300;-62